Main page
METAR-TAF:

METAR-TAF

Airports :

Najaf, Iraq

Al Najaf International Airport

latitude: 31-59-23N, longitude: 44-24-15E, elevation: 31 m

Current weather observation

The report was made 1 hour and 5 minutes ago, at 13:00 UTC
Wind 8 kt from the Northeast
Temperature 33°C
Humidity 12%
Pressure 1011 hPa
Visibility 10 km or more
no clouds below 1500 m and no cumulonimbus

METAR: ORNI 211300Z 05008KT CAVOK 33/00 Q1011 NOSIG

Time: 17:05 (14:05 UTC)

Forecast

The report was made 4 hours and 5 minutes ago, at 10:00 UTC
Forecast valid from 21 at 12 UTC to 22 at 12 UTC
Wind 8 kt from the North/Northwest
Visibility: 7000 m

TAF: ORNI 211000Z 2112/2212 34008KT 7000 NSC

Weather observations and forecasts of more than 4000 airports (METAR and TAF reports).

The available stations are represented by yellow and red dots on the map.

Hover mouse over dot to see the name of the station.

Then click to see weather observations and forecasts.

To change the map : click on the green buttons with a black cross to zoom in, on the green button with a dash to zoom out, or on the green arrows for adjacent maps.


METAR-TAF: